world map with ETSI marked

ETSI - Airport

This information may not be accurate or current and is not valid for navigation or flight planning. No warranty of fitness for any purpose is made or implied.

flag of Bavariaflag of Germany

Donate via PayPal

Additional information is available on the NEW Great Circle Mapper

Location
City:  Ingolstadt, Bavaria, Germany
Name:Manching
ICAO / IATA:ETSI / IGS

Details
Type:Airport (Flugplatz, Airfield)
Use:Military
Latitude:48°42'56"N (48.715667)
Longitude:11°32'02"E (11.534000)
Elevation:1202 ft (366 m)
Runways:2
Longest:9646 × 197 ft (2940 × 60 m)

Time
Timezone:UTC+1 (DST+4)
Local Time:

Weather
METAR:ETSI  041320Z 07004KT 9999 FEW020 00/M02 Q1029 BLU+BLU+
TAF:ETSI  (expired)

Related Locations
Nearby:
Farthest:CHT: 11925 mi / 19191 km
Waitangi [Tuuta], CIT, NZ

Find:

   beyond  
but within

Other Information
Maps:
Sources:

  


 


Great Circle Mapper   Great Circle Mapper
Great Circle Mapper FAQ   Great Circle Mapper FAQ
  Karl's Home Page
KLSē   KLSē Home
   GC on Facebook
Airlines of the World   Airlines of the World
Donate via PayPal


Copyright © 2004-2020, Karl L. Swartz. All rights reserved.
All trademarks mentioned herein belong to their respective owners.

Please see credits for attribution and copyright information.

Karl Swartz <karl@kls2.com>
  Powered by FreeBSD
Valid HTML 4.01!
Labeled with ICRA
hCard Microformat
Geo Microformat